Time;durP1;ratioP1;P1;durP2;ratioP2;P2;SDS_P1;SDS_P2;PMS_P1;PMS_P2;Temp;Humidity;BMP_temperature;BMP_pressure;BME280_temperature;BME280_humidity;BME280_pressure;Samples;Min_cycle;Max_cycle;Signal;HPM_P1;HPM_P2
2021/10/15 16:40:07;;;;;;;10.13;5.60;;;20.90;58.30;;;;;;5050186;28;20516;-91
2021/10/15 16:42:33;;;;;;;11.57;5.63;;;21.10;58.70;;;;;;5026221;28;20030;-91
2021/10/15 16:44:58;;;;;;;9.55;5.53;;;21.20;58.40;;;;;;5027727;28;20091;-91
2021/10/15 16:47:24;;;;;;;9.70;5.35;;;21.30;58.10;;;;;;5001829;28;20076;-91
2021/10/15 16:50:12;;;;;;;8.80;5.35;;;21.30;58.10;;;;;;5003276;28;20152;-86
2021/10/15 16:52:39;;;;;;;7.60;4.75;;;21.30;58.30;;;;;;5041469;28;20024;-85
2021/10/15 16:55:05;;;;;;;10.18;5.25;;;21.30;58.20;;;;;;5034155;28;20033;-86
2021/10/15 16:57:32;;;;;;;9.85;4.90;;;21.30;58.30;;;;;;5048397;28;20379;-85
2021/10/15 17:00:22;;;;;;;10.00;5.03;;;21.30;58.40;;;;;;5025277;28;20033;-86
2021/10/15 17:02:48;;;;;;;8.48;4.75;;;21.30;58.40;;;;;;5040641;28;20038;-86
2021/10/15 17:05:14;;;;;;;10.50;4.80;;;21.30;58.30;;;;;;5024146;28;20490;-84
2021/10/15 17:07:40;;;;;;;8.20;4.72;;;21.30;58.30;;;;;;5024208;28;20025;-85
2021/10/15 17:10:06;;;;;;;11.65;4.70;;;21.30;58.30;;;;;;5041148;28;20033;-90
2021/10/15 17:12:32;;;;;;;10.13;5.13;;;21.40;58.30;;;;;;5022103;28;20098;-88
2021/10/15 17:14:58;;;;;;;12.98;4.35;;;21.40;58.40;;;;;;5010852;28;20038;-86
2021/10/15 17:17:24;;;;;;;9.35;4.43;;;21.40;58.40;;;;;;5040993;28;20055;-87
2021/10/15 17:19:54;;;;;;;8.60;4.38;;;21.40;58.20;;;;;;5030721;28;20518;-86
2021/10/15 17:22:21;;;;;;;9.13;4.13;;;21.40;58.20;;;;;;5023483;28;20579;-87
2021/10/15 17:24:46;;;;;;;8.52;4.22;;;21.40;58.20;;;;;;5028213;28;20223;-87
2021/10/15 17:27:12;;;;;;;9.35;4.38;;;21.50;58.30;;;;;;5018059;28;20120;-88
2021/10/15 17:29:38;;;;;;;11.80;4.10;;;21.40;58.10;;;;;;5017822;28;20076;-89
2021/10/15 17:32:05;;;;;;;8.45;3.78;;;21.50;58.30;;;;;;5024301;28;20030;-88
2021/10/15 17:34:31;;;;;;;9.57;3.90;;;21.50;58.20;;;;;;5028180;28;20024;-87
2021/10/15 17:36:57;;;;;;;10.90;3.88;;;21.50;58.10;;;;;;4995139;28;20030;-87
2021/10/15 17:39:23;;;;;;;7.75;3.80;;;21.60;58.10;;;;;;4994577;28;20057;-87
2021/10/15 17:41:49;;;;;;;10.45;3.83;;;21.60;58.00;;;;;;5008982;28;20115;-89
2021/10/15 17:44:15;;;;;;;7.50;3.47;;;21.60;58.00;;;;;;5034600;28;20600;-88
2021/10/15 17:46:41;;;;;;;6.65;3.40;;;21.60;57.80;;;;;;5027111;28;20025;-90
2021/10/15 17:49:08;;;;;;;8.00;3.75;;;21.70;57.90;;;;;;5020669;28;20033;-89
2021/10/15 17:51:34;;;;;;;7.18;3.50;;;21.70;57.80;;;;;;5015575;28;20105;-89
2021/10/15 17:54:00;;;;;;;9.25;3.50;;;21.80;57.80;;;;;;5011692;28;20121;-87
2021/10/15 17:56:44;;;;;;;9.82;3.40;;;21.90;58.00;;;;;;5025477;28;20449;-88
2021/10/15 17:59:10;;;;;;;10.32;3.40;;;22.00;57.60;;;;;;5021579;28;20038;-90
2021/10/15 18:01:37;;;;;;;9.73;3.80;;;22.00;57.40;;;;;;5029356;28;20098;-93
2021/10/15 18:09:22;;;;;;;7.10;3.63;;;22.20;57.40;;;;;;5036905;22;20049;-90
2021/10/15 18:11:48;;;;;;;9.23;4.18;;;22.30;57.50;;;;;;4994949;28;20025;-92
2021/10/15 18:14:14;;;;;;;7.88;3.80;;;22.30;57.30;;;;;;5009955;28;20029;-91
2021/10/15 18:16:40;;;;;;;7.32;3.60;;;22.30;57.30;;;;;;4979046;28;20109;-92
2021/10/15 18:19:06;;;;;;;8.93;3.55;;;22.30;57.30;;;;;;4972865;28;20560;-91
2021/10/15 18:21:32;;;;;;;9.63;3.80;;;22.40;57.30;;;;;;4987123;28;20025;-91
2021/10/15 18:23:57;;;;;;;10.38;4.03;;;22.40;57.00;;;;;;4993906;28;20026;-90
2021/10/15 18:26:23;;;;;;;6.97;3.40;;;22.40;57.40;;;;;;4978705;28;20072;-91
2021/10/15 18:28:49;;;;;;;6.93;3.55;;;22.50;57.30;;;;;;4991138;28;20044;-89
2021/10/15 18:31:15;;;;;;;7.82;3.15;;;22.50;58.20;;;;;;5006090;28;20480;-89
2021/10/15 18:33:45;;;;;;;8.43;3.67;;;22.60;57.10;;;;;;5006800;28;20108;-89
2021/10/15 18:36:11;;;;;;;8.63;3.50;;;22.60;57.10;;;;;;4973232;28;20036;-89
2021/10/15 18:38:40;;;;;;;9.38;3.40;;;22.50;56.90;;;;;;4979523;28;20042;-91
2021/10/15 18:41:07;;;;;;;7.05;3.50;;;22.60;57.20;;;;;;4995553;28;20550;-89
2021/10/15 18:43:33;;;;;;;7.75;3.20;;;22.60;56.90;;;;;;5017358;28;20026;-89
2021/10/15 18:45:59;;;;;;;7.22;3.33;;;22.70;57.00;;;;;;4989748;28;20508;-89
2021/10/15 18:48:25;;;;;;;9.80;3.90;;;22.70;56.90;;;;;;5007677;28;20049;-87
2021/10/15 18:51:19;;;;;;;10.93;3.67;;;22.70;57.20;;;;;;4978894;28;20057;-91
2021/10/15 18:53:45;;;;;;;7.47;3.45;;;22.70;56.90;;;;;;5007175;28;20241;-92
2021/10/15 18:56:11;;;;;;;8.32;3.28;;;22.70;56.70;;;;;;4975941;28;20026;-94
2021/10/15 18:58:37;;;;;;;7.18;3.00;;;22.70;57.10;;;;;;5007376;28;20119;-93
2021/10/15 19:01:03;;;;;;;10.10;3.10;;;22.60;57.00;;;;;;4978503;28;20056;-91
2021/10/15 19:03:29;;;;;;;7.97;3.53;;;22.70;57.20;;;;;;4988032;28;20029;-89
2021/10/15 19:05:55;;;;;;;7.82;3.25;;;22.70;56.90;;;;;;4994849;28;20039;-89
2021/10/15 19:08:26;;;;;;;7.45;3.30;;;22.70;56.80;;;;;;5009849;28;20095;-88
2021/10/15 19:10:53;;;;;;;8.02;3.15;;;22.70;57.00;;;;;;5009601;28;20025;-89
2021/10/15 19:13:20;;;;;;;9.07;3.13;;;22.80;56.70;;;;;;5023054;28;20112;-89
2021/10/15 19:15:46;;;;;;;9.60;3.40;;;22.80;57.80;;;;;;4980099;28;20133;-86
2021/10/15 19:18:12;;;;;;;8.27;3.60;;;22.80;57.40;;;;;;5006465;28;20064;-90
2021/10/15 19:20:38;;;;;;;9.35;3.20;;;22.80;57.10;;;;;;4994181;28;20391;-87
2021/10/15 19:23:03;;;;;;;14.50;3.30;;;22.80;57.10;;;;;;4974228;28;20038;-87
2021/10/15 19:25:29;;;;;;;8.13;3.05;;;22.80;57.10;;;;;;5006248;28;20033;-88
2021/10/15 19:27:55;;;;;;;8.18;2.90;;;22.80;57.00;;;;;;4990752;28;20030;-86
2021/10/15 19:30:23;;;;;;;7.43;3.00;;;22.80;56.80;;;;;;5009700;28;20392;-86
